Time;durP1;ratioP1;P1;durP2;ratioP2;P2;SDS_P1;SDS_P2;PMS_P1;PMS_P2;Temp;Humidity;BMP_temperature;BMP_pressure;BME280_temperature;BME280_humidity;BME280_pressure;Samples;Min_cycle;Max_cycle;Signal;HPM_P1;HPM_P2
2022/09/17 00:00:46;;;;;;;8.52;3.05;;;;;;;19.18;64.44;97298.59;4487351;31;20417;-82
2022/09/17 00:03:14;;;;;;;7.72;2.90;;;;;;;18.50;66.33;97298.41;4486589;32;20503;-82
2022/09/17 00:05:42;;;;;;;7.20;2.97;;;;;;;17.18;69.99;97297.38;4487491;31;20092;-82
2022/09/17 00:08:13;;;;;;;8.20;3.12;;;;;;;18.07;68.31;97286.44;4487520;31;20583;-83
2022/09/17 00:10:42;;;;;;;8.15;3.47;;;;;;;16.57;74.47;97276.19;4486799;32;20189;-82
2022/09/17 00:13:10;;;;;;;7.78;3.15;;;;;;;17.46;71.56;97283.75;4487760;31;20149;-83
2022/09/17 00:15:42;;;;;;;12.23;3.70;;;;;;;17.58;70.87;97277.50;4487293;31;20141;-82
2022/09/17 00:18:09;;;;;;;7.47;3.30;;;;;;;17.25;72.36;97273.28;4487766;31;20071;-83
2022/09/17 00:20:44;;;;;;;9.90;3.70;;;;;;;17.21;73.33;97282.31;4487381;31;20152;-83
2022/09/17 00:23:12;;;;;;;8.18;3.40;;;;;;;18.15;70.08;97281.41;4487515;31;20093;-83
2022/09/17 00:25:41;;;;;;;7.18;3.20;;;;;;;18.70;66.86;97284.47;4486728;31;20084;-82
2022/09/17 00:28:08;;;;;;;7.65;3.45;;;;;;;18.20;68.43;97292.28;4486878;31;20080;-83
2022/09/17 00:30:39;;;;;;;8.95;3.47;;;;;;;18.85;65.63;97297.19;4487394;32;20103;-83
2022/09/17 00:33:06;;;;;;;12.05;3.50;;;;;;;19.49;63.53;97289.63;4487638;31;20115;-83
2022/09/17 00:35:33;;;;;;;8.68;3.65;;;;;;;18.71;66.89;97290.53;4487176;31;20152;-83
2022/09/17 00:38:00;;;;;;;8.85;3.60;;;;;;;18.98;65.31;97290.72;4487572;31;20077;-83
2022/09/17 00:40:26;;;;;;;7.10;3.03;;;;;;;19.58;62.45;97294.06;4487350;31;20504;-83
2022/09/17 00:42:53;;;;;;;9.38;3.53;;;;;;;19.45;62.92;97297.88;4485747;32;20104;-83
2022/09/17 00:45:21;;;;;;;9.15;3.22;;;;;;;19.80;61.87;97297.34;4487463;31;20135;-83
2022/09/17 00:47:57;;;;;;;7.75;3.05;;;;;;;19.05;64.32;97298.88;4486389;32;20140;-83
2022/09/17 00:50:41;;;;;;;10.77;3.42;;;;;;;18.41;67.18;97304.47;4487073;31;20100;-83
2022/09/17 00:53:13;;;;;;;7.45;3.10;;;;;;;18.37;67.54;97303.87;4486307;32;20522;-83
2022/09/17 00:55:44;;;;;;;8.73;3.30;;;;;;;18.63;66.48;97298.22;4486039;32;20103;-83
2022/09/17 00:58:12;;;;;;;7.07;3.12;;;;;;;18.76;65.75;97294.41;4487180;31;20111;-83
2022/09/17 01:00:39;;;;;;;7.80;3.30;;;;;;;18.88;65.12;97292.50;4487236;31;20232;-83
2022/09/17 01:03:06;;;;;;;7.57;2.70;;;;;;;19.53;62.26;97296.22;4487040;31;20422;-83
2022/09/17 01:05:41;;;;;;;8.40;3.37;;;;;;;20.06;59.35;97308.00;4487180;31;20779;-82
2022/09/17 01:08:33;;;;;;;7.07;2.85;;;;;;;19.62;60.91;97312.91;4487338;31;20071;-83
2022/09/17 01:11:11;;;;;;;7.35;2.97;;;;;;;19.13;62.59;97321.69;4486724;31;20092;-83
2022/09/17 01:14:05;;;;;;;6.62;3.00;;;;;;;18.79;63.51;97319.44;4487325;31;20439;-83
2022/09/17 01:16:44;;;;;;;7.10;3.15;;;;;;;18.42;65.13;97311.34;4487231;31;20469;-83
2022/09/17 01:19:37;;;;;;;7.62;2.90;;;;;;;17.96;67.23;97312.63;4486960;31;20092;-83
2022/09/17 01:22:22;;;;;;;7.30;2.92;;;;;;;18.91;63.36;97305.28;4485875;32;20096;-83
2022/09/17 01:25:03;;;;;;;6.47;2.90;;;;;;;19.17;62.00;97297.75;4486803;31;20709;-83
2022/09/17 01:28:12;;;;;;;7.85;2.87;;;;;;;18.67;64.26;97292.59;4487237;31;20077;-83
2022/09/17 01:30:58;;;;;;;;;;;;;;;18.94;62.85;97296.38;4487294;32;20137;-83
2022/09/17 01:34:00;;;;;;;8.13;3.12;;;;;;;19.23;61.94;97305.03;4486825;32;20138;-83
2022/09/17 01:36:37;;;;;;;7.22;3.08;;;;;;;20.06;58.66;97316.69;4484618;32;20165;-83
2022/09/17 01:39:44;;;;;;;6.90;3.25;;;;;;;20.24;57.32;97319.38;4486168;31;20084;-83
2022/09/17 01:42:37;;;;;;;8.15;2.90;;;;;;;19.91;58.36;97315.50;4485565;32;20076;-82
2022/09/17 01:45:08;;;;;;;8.55;2.87;;;;;;;19.44;60.01;97306.69;4485458;32;20105;-83
2022/09/17 01:47:43;;;;;;;8.93;3.33;;;;;;;19.81;59.14;97298.97;4485659;32;20120;-83
2022/09/17 01:50:19;;;;;;;10.55;3.20;;;;;;;19.40;60.56;97303.53;4486663;31;20115;-83
2022/09/17 01:52:48;;;;;;;7.22;2.87;;;;;;;18.95;61.57;97300.63;4485241;32;20085;-83
2022/09/17 01:55:17;;;;;;;9.57;3.00;;;;;;;19.11;60.68;97298.28;4472507;32;20105;-83
2022/09/17 01:57:52;;;;;;;7.60;3.00;;;;;;;18.90;61.96;97289.75;4486664;31;20100;-83
2022/09/17 02:00:21;;;;;;;7.53;3.30;;;;;;;19.13;60.48;97295.53;4484994;32;20444;-83
2022/09/17 02:03:07;;;;;;;9.60;3.90;;;;;;;19.70;58.69;97294.72;4486565;31;20419;-83
2022/09/17 02:05:40;;;;;;;7.90;2.90;;;;;;;19.24;60.28;97287.56;4486387;31;20108;-83
2022/09/17 02:08:15;;;;;;;8.85;4.32;;;;;;;17.35;66.49;97283.81;4486329;31;20157;-83
2022/09/17 02:10:44;;;;;;;6.72;2.62;;;;;;;17.98;64.01;97274.19;4485329;32;20088;-83
2022/09/17 02:13:32;;;;;;;7.50;3.03;;;;;;;18.16;63.19;97271.78;4486123;31;20093;-83
2022/09/17 02:16:07;;;;;;;7.53;2.92;;;;;;;16.96;69.46;97264.41;4485109;32;20097;-83
2022/09/17 02:18:56;;;;;;;7.60;2.58;;;;;;;18.00;64.51;97264.44;4485144;32;20172;-83
2022/09/17 02:21:53;;;;;;;6.28;2.53;;;;;;;17.83;64.49;97257.22;4484660;32;20401;-83
2022/09/17 02:24:24;;;;;;;5.65;2.50;;;;;;;18.11;63.83;97250.47;4486268;31;20081;-83
2022/09/17 02:27:16;;;;;;;6.22;2.50;;;;;;;18.49;62.31;97245.34;4485064;32;20119;-83
2022/09/17 02:29:43;;;;;;;7.82;2.78;;;;;;;16.99;66.41;97240.69;4484992;32;20514;-83
2022/09/17 02:32:12;;;;;;;8.35;2.92;;;;;;;17.28;66.65;97235.72;4486088;31;20153;-83
2022/09/17 02:34:39;;;;;;;7.85;2.67;;;;;;;18.48;62.26;97232.44;4484501;32;20114;-83
2022/09/17 02:37:06;;;;;;;6.20;2.40;;;;;;;19.10;59.97;97217.38;4484902;32;20103;-83
2022/09/17 02:39:33;;;;;;;8.00;2.67;;;;;;;19.17;59.44;97227.16;4485923;31;20093;-83
2022/09/17 02:42:22;;;;;;;4.70;2.50;;;;;;;18.57;61.35;97215.94;4485331;31;20145;-83
2022/09/17 02:45:05;;;;;;;6.62;2.40;;;;;;;18.12;62.33;97205.13;4484768;32;20080;-83
2022/09/17 02:48:29;;;;;;;9.85;2.58;;;;;;;18.14;62.48;97183.16;4484757;32;20112;-83
2022/09/17 02:51:32;;;;;;;7.15;2.60;;;;;;;17.86;63.66;97165.59;4438584;32;20124;-83
2022/09/17 02:54:15;;;;;;;6.22;2.72;;;;;;;17.46;64.35;97152.53;4426651;32;20171;-82
2022/09/17 02:56:50;;;;;;;7.25;2.60;;;;;;;17.76;63.31;97146.50;4479826;32;20076;-83
2022/09/17 02:59:30;;;;;;;6.55;2.62;;;;;;;16.57;67.41;97139.00;4487073;32;20108;-83
2022/09/17 03:02:18;;;;;;;7.03;2.65;;;;;;;16.23;69.83;97155.69;4487085;32;20232;-83
2022/09/17 03:04:47;;;;;;;8.82;2.92;;;;;;;16.33;68.62;97165.25;4486909;32;20145;-83
2022/09/17 03:07:17;;;;;;;6.20;2.62;;;;;;;16.37;68.78;97177.06;4488250;31;20085;-83
2022/09/17 03:09:44;;;;;;;7.78;2.70;;;;;;;17.76;63.56;97177.81;4486641;32;20112;-83
2022/09/17 03:12:12;;;;;;;5.65;2.37;;;;;;;16.74;65.08;97168.94;4488129;31;20360;-83
2022/09/17 03:14:38;;;;;;;6.45;2.35;;;;;;;16.04;69.07;97170.16;4486815;32;20141;-83
2022/09/17 03:17:05;;;;;;;7.28;2.53;;;;;;;16.44;67.35;97172.19;4473739;32;20107;-83
2022/09/17 03:19:32;;;;;;;7.25;2.67;;;;;;;16.39;68.49;97171.75;4488135;31;20111;-83
2022/09/17 03:21:59;;;;;;;7.93;2.60;;;;;;;16.08;68.75;97173.34;4488022;31;20111;-83
2022/09/17 03:24:26;;;;;;;5.82;2.50;;;;;;;16.18;68.51;97169.09;4487628;31;20097;-83
2022/09/17 03:26:53;;;;;;;8.70;2.90;;;;;;;15.29;71.98;97162.91;4486922;32;20080;-83
2022/09/17 03:29:20;;;;;;;8.23;2.87;;;;;;;16.53;67.49;97170.63;4487928;31;20411;-83
2022/09/17 03:31:47;;;;;;;5.97;2.40;;;;;;;16.96;65.46;97179.25;4487717;32;20101;-83
2022/09/17 03:34:14;;;;;;;5.40;2.30;;;;;;;16.75;67.25;97184.44;4487836;31;20127;-83
2022/09/17 03:36:41;;;;;;;7.22;2.50;;;;;;;16.57;66.98;97190.25;4488019;31;20482;-83
2022/09/17 03:39:08;;;;;;;8.20;2.53;;;;;;;16.35;68.31;97186.78;4487635;31;20110;-83
2022/09/17 03:41:35;;;;;;;6.75;2.80;;;;;;;16.70;67.13;97185.78;4487724;31;20080;-83
2022/09/17 03:44:02;;;;;;;9.00;2.97;;;;;;;15.03;74.75;97172.69;4487652;31;20375;-83
2022/09/17 03:46:29;;;;;;;7.97;2.60;;;;;;;16.13;70.77;97184.22;4487771;31;20075;-83
2022/09/17 03:48:56;;;;;;;7.03;2.35;;;;;;;17.14;65.61;97186.50;4487887;31;20375;-83
2022/09/17 03:51:23;;;;;;;5.75;2.40;;;;;;;17.67;63.61;97183.78;4487648;31;20105;-83
2022/09/17 03:53:50;;;;;;;7.55;2.80;;;;;;;16.97;65.68;97182.69;4487683;31;20368;-83
2022/09/17 03:56:17;;;;;;;6.40;2.85;;;;;;;16.66;67.23;97176.50;4487891;31;20133;-83
2022/09/17 03:58:44;;;;;;;8.93;3.00;;;;;;;16.26;69.95;97171.88;4487510;31;20111;-83
2022/09/17 04:01:11;;;;;;;9.40;3.47;;;;;;;16.89;67.21;97172.87;4487322;31;20093;-83
2022/09/17 04:03:38;;;;;;;5.37;2.30;;;;;;;17.11;65.55;97177.12;4487780;31;20080;-83
2022/09/17 04:06:05;;;;;;;7.57;3.05;;;;;;;16.65;67.60;97167.03;4487434;31;20092;-83
2022/09/17 04:08:32;;;;;;;6.55;2.50;;;;;;;16.13;70.12;97169.44;4487887;31;20435;-83
2022/09/17 04:10:59;;;;;;;6.78;2.65;;;;;;;16.71;66.91;97166.59;4488536;31;20432;-83
2022/09/17 04:13:26;;;;;;;6.70;2.67;;;;;;;17.37;64.26;97155.91;4487615;31;20133;-83
2022/09/17 04:15:53;;;;;;;5.60;2.50;;;;;;;16.63;66.18;97148.09;4487535;31;20088;-83
2022/09/17 04:18:20;;;;;;;9.27;2.20;;;;;;;15.62;70.23;97128.34;4487712;31;20479;-83
2022/09/17 04:20:47;;;;;;;5.12;2.42;;;;;;;15.58;70.64;97129.50;4487429;31;20169;-83
2022/09/17 04:23:14;;;;;;;7.82;2.60;;;;;;;15.85;69.43;97129.16;4487555;31;20111;-83
2022/09/17 04:25:41;;;;;;;5.18;2.47;;;;;;;15.60;69.24;97122.44;4487545;31;20068;-83
2022/09/17 04:28:08;;;;;;;7.05;2.80;;;;;;;15.73;70.24;97132.69;4487422;31;20116;-83
2022/09/17 04:30:36;;;;;;;6.15;2.60;;;;;;;16.44;67.57;97135.75;4487501;31;20096;-83
2022/09/17 04:33:03;;;;;;;7.12;2.70;;;;;;;16.74;65.88;97135.06;4487535;32;20137;-83
2022/09/17 04:35:30;;;;;;;7.75;2.72;;;;;;;16.20;67.34;97144.59;4487034;32;20125;-83
2022/09/17 04:37:57;;;;;;;5.12;2.30;;;;;;;15.19;72.20;97140.34;4487663;31;20093;-83
2022/09/17 04:40:25;;;;;;;7.07;2.47;;;;;;;15.87;69.21;97142.87;4487567;31;20153;-83
2022/09/17 04:42:58;;;;;;;7.45;2.78;;;;;;;14.71;73.64;97162.06;4486950;31;20148;-83
2022/09/17 04:45:25;;;;;;;5.43;2.47;;;;;;;16.15;67.93;97153.69;4487391;31;20088;-83
2022/09/17 04:47:52;;;;;;;7.57;2.70;;;;;;;16.11;67.05;97154.88;4487288;31;20115;-83
2022/09/17 04:50:19;;;;;;;8.10;2.75;;;;;;;15.24;70.79;97159.03;4487402;31;20101;-83
2022/09/17 04:52:46;;;;;;;6.40;2.53;;;;;;;16.01;68.08;97165.19;4487438;31;20221;-83
2022/09/17 04:55:14;;;;;;;7.82;2.78;;;;;;;17.03;64.14;97167.38;4487230;31;20076;-83
2022/09/17 04:57:49;;;;;;;7.20;2.53;;;;;;;17.25;62.97;97173.41;4486247;32;20104;-83
2022/09/17 05:00:17;;;;;;;10.10;3.00;;;;;;;16.76;64.09;97162.62;4487372;31;20111;-83
2022/09/17 05:02:46;;;;;;;6.78;2.50;;;;;;;16.80;64.17;97168.44;4487164;31;20434;-83
2022/09/17 05:05:13;;;;;;;7.03;2.50;;;;;;;16.34;65.90;97169.50;4487104;31;20100;-83
2022/09/17 05:07:40;;;;;;;6.45;2.92;;;;;;;16.91;64.30;97176.19;4487144;31;20096;-83
2022/09/17 05:10:08;;;;;;;7.65;2.50;;;;;;;16.38;65.86;97186.56;4487077;31;20096;-83
2022/09/17 05:12:35;;;;;;;7.07;2.53;;;;;;;16.97;63.82;97190.50;4486225;31;20511;-83
2022/09/17 05:15:03;;;;;;;4.95;2.22;;;;;;;17.64;61.81;97205.72;4487008;31;20080;-83
2022/09/17 05:17:30;;;;;;;6.30;2.53;;;;;;;18.52;57.79;97206.88;4487049;31;20088;-83
2022/09/17 05:19:57;;;;;;;6.20;2.33;;;;;;;16.86;63.34;97214.81;4487056;32;20123;-83
2022/09/17 05:22:24;;;;;;;6.47;2.35;;;;;;;16.94;64.21;97222.84;4486975;31;20188;-83
2022/09/17 05:24:51;;;;;;;5.47;2.28;;;;;;;17.44;62.21;97227.44;4486777;31;20076;-83
2022/09/17 05:27:18;;;;;;;5.50;2.40;;;;;;;17.26;62.17;97221.97;4487164;31;20468;-83
2022/09/17 05:29:45;;;;;;;6.45;2.45;;;;;;;18.16;59.05;97217.78;4486939;31;20515;-83
2022/09/17 05:32:12;;;;;;;8.55;2.60;;;;;;;17.52;62.41;97209.38;4487049;31;20080;-83
2022/09/17 05:34:40;;;;;;;6.15;2.67;;;;;;;17.73;60.76;97202.38;4486879;31;20076;-83
2022/09/17 05:37:10;;;;;;;7.97;2.78;;;;;;;17.25;62.46;97194.25;4486799;31;20145;-83
2022/09/17 05:39:37;;;;;;;6.45;2.60;;;;;;;17.23;62.08;97197.00;4486833;31;20104;-83
2022/09/17 05:42:04;;;;;;;5.50;2.53;;;;;;;17.69;61.10;97200.97;4486507;31;20431;-82
2022/09/17 05:44:31;;;;;;;8.35;2.65;;;;;;;18.16;59.50;97203.91;4486653;31;20076;-83
2022/09/17 05:46:58;;;;;;;6.72;2.50;;;;;;;18.25;59.47;97207.50;4486942;31;20232;-83
2022/09/17 05:49:25;;;;;;;7.65;2.65;;;;;;;16.26;67.30;97195.31;4486672;32;20100;-83
2022/09/17 05:51:52;;;;;;;10.10;3.03;;;;;;;17.12;63.76;97193.59;4486694;31;20508;-83
2022/09/17 05:54:19;;;;;;;6.75;2.70;;;;;;;17.28;63.29;97197.44;4486632;31;20468;-83
2022/09/17 05:56:46;;;;;;;8.40;3.00;;;;;;;17.63;62.54;97204.06;4486762;31;20220;-83
2022/09/17 05:59:14;;;;;;;6.57;2.87;;;;;;;17.21;64.48;97211.91;4486394;31;20166;-83
2022/09/17 06:01:41;;;;;;;6.45;2.80;;;;;;;18.16;60.55;97207.34;4486533;31;20089;-83
2022/09/17 06:04:08;;;;;;;8.10;3.00;;;;;;;17.58;62.33;97219.28;4486463;31;20080;-83
2022/09/17 06:06:36;;;;;;;7.68;2.87;;;;;;;16.73;65.48;97209.78;4472099;32;20120;-83
2022/09/17 06:09:07;;;;;;;8.50;2.95;;;;;;;16.42;67.56;97211.37;4486520;31;20149;-83
2022/09/17 06:11:35;;;;;;;9.02;3.03;;;;;;;16.05;68.56;97203.03;4486486;31;20093;-83
2022/09/17 06:14:02;;;;;;;7.12;3.28;;;;;;;16.27;68.09;97216.97;4486180;31;20102;-83
2022/09/17 06:16:29;;;;;;;7.00;3.00;;;;;;;17.08;65.71;97218.28;4486506;31;20097;-83
2022/09/17 06:18:56;;;;;;;8.18;2.90;;;;;;;17.75;61.77;97215.28;4486347;31;20169;-83
2022/09/17 06:21:23;;;;;;;7.60;3.08;;;;;;;16.76;65.05;97217.34;4486174;31;20435;-83
2022/09/17 06:23:50;;;;;;;8.93;3.20;;;;;;;17.36;63.62;97217.66;4486823;31;20088;-82
2022/09/17 06:26:17;;;;;;;9.13;3.25;;;;;;;16.09;68.34;97211.44;4488200;31;20096;-83
2022/09/17 06:28:45;;;;;;;8.45;3.20;;;;;;;16.12;68.41;97217.22;4488414;31;20367;-83
2022/09/17 06:31:12;;;;;;;8.25;3.08;;;;;;;14.85;74.15;97210.38;4488353;31;20102;-83
2022/09/17 06:33:39;;;;;;;8.50;3.50;;;;;;;16.36;69.49;97211.84;4488206;31;20110;-84
2022/09/17 06:36:09;;;;;;;7.12;2.78;;;;;;;15.71;72.14;97210.00;4488332;31;20100;-83
2022/09/17 06:38:40;;;;;;;8.10;2.97;;;;;;;15.46;73.72;97208.44;4488600;31;20097;-83
2022/09/17 06:41:07;;;;;;;6.72;2.80;;;;;;;15.71;73.43;97193.59;4488051;31;20148;-83
2022/09/17 06:43:34;;;;;;;6.80;2.97;;;;;;;16.31;70.90;97202.78;4488348;31;20080;-83
2022/09/17 06:46:04;;;;;;;6.78;2.90;;;;;;;16.30;70.71;97198.50;4488346;31;20096;-83
2022/09/17 06:48:33;;;;;;;6.07;2.78;;;;;;;15.36;74.35;97183.25;4488102;31;20088;-83
2022/09/17 06:51:03;;;;;;;6.35;2.70;;;;;;;16.34;69.34;97186.91;4474015;32;20088;-83
2022/09/17 06:53:30;;;;;;;6.85;2.70;;;;;;;15.99;68.97;97180.09;4488284;31;20084;-83
2022/09/17 06:55:58;;;;;;;7.82;2.90;;;;;;;15.74;70.60;97189.00;4487906;31;20137;-83
2022/09/17 06:58:32;;;;;;;8.88;3.55;;;;;;;15.85;70.71;97186.38;4488304;31;20142;-83
2022/09/17 07:01:00;;;;;;;8.23;3.22;;;;;;;16.20;70.43;97199.25;4486801;32;20144;-83
2022/09/17 07:03:28;;;;;;;7.55;2.70;;;;;;;15.89;70.39;97212.97;4488051;31;20096;-83
2022/09/17 07:05:56;;;;;;;7.35;3.12;;;;;;;15.89;71.22;97216.41;4486786;32;20119;-83
2022/09/17 07:08:24;;;;;;;10.70;3.40;;;;;;;15.67;73.09;97225.97;4488078;31;20089;-83
2022/09/17 07:10:55;;;;;;;8.48;3.25;;;;;;;15.32;74.19;97224.25;4488063;31;20103;-83
2022/09/17 07:13:23;;;;;;;7.43;3.37;;;;;;;16.44;70.79;97238.12;4488142;31;20141;-83
2022/09/17 07:15:58;;;;;;;7.75;3.03;;;;;;;16.46;71.30;97243.19;4487697;31;20161;-83
2022/09/17 07:18:25;;;;;;;9.52;3.53;;;;;;;16.15;71.20;97245.59;4486983;32;20104;-83
2022/09/17 07:20:59;;;;;;;8.85;3.20;;;;;;;16.05;71.98;97243.84;4487988;31;20087;-83
2022/09/17 07:23:28;;;;;;;9.35;3.25;;;;;;;16.45;70.35;97257.16;4487758;31;20503;-83
2022/09/17 07:25:57;;;;;;;6.87;3.17;;;;;;;17.12;67.85;97259.63;4487878;31;20088;-83
2022/09/17 07:28:25;;;;;;;7.70;3.30;;;;;;;17.56;65.65;97266.38;4488033;31;20114;-83
2022/09/17 07:30:52;;;;;;;8.45;4.30;;;;;;;17.32;65.50;97266.59;4487608;31;20088;-83
2022/09/17 07:33:24;;;;;;;8.38;3.58;;;;;;;17.45;65.30;97274.28;4487955;31;20385;-83
2022/09/17 07:35:56;;;;;;;9.65;2.97;;;;;;;17.61;65.07;97285.06;4486172;32;20220;-82
2022/09/17 07:38:24;;;;;;;9.57;3.45;;;;;;;18.19;62.28;97293.25;4488168;31;20101;-82
2022/09/17 07:41:04;;;;;;;7.47;3.25;;;;;;;17.23;65.35;97310.87;4487727;31;20089;-82
2022/09/17 07:43:33;;;;;;;9.05;3.20;;;;;;;17.85;63.70;97310.09;4487496;31;20098;-82
2022/09/17 07:46:02;;;;;;;8.60;3.45;;;;;;;17.44;65.24;97308.28;4487695;31;20138;-83
2022/09/17 07:48:29;;;;;;;9.30;3.40;;;;;;;16.80;69.62;97303.06;4487923;31;20100;-83
2022/09/17 07:50:56;;;;;;;8.38;3.20;;;;;;;17.85;63.95;97307.47;4487598;31;20107;-83
2022/09/17 07:53:23;;;;;;;7.65;3.30;;;;;;;17.45;65.90;97312.56;4487833;31;20088;-83
2022/09/17 07:55:54;;;;;;;6.10;2.90;;;;;;;18.32;63.50;97310.47;4487646;31;20107;-83
2022/09/17 07:58:33;;;;;;;9.05;3.45;;;;;;;17.97;65.09;97308.22;4473532;32;20172;-83
2022/09/17 08:01:02;;;;;;;8.23;3.55;;;;;;;17.38;67.44;97307.00;4487759;31;20093;-83
2022/09/17 08:03:29;;;;;;;10.27;3.40;;;;;;;17.40;68.07;97299.06;4487612;31;20092;-83
2022/09/17 08:06:07;;;;;;;8.50;3.55;;;;;;;17.46;67.81;97296.78;4487280;31;20092;-83
2022/09/17 08:08:35;;;;;;;7.97;3.42;;;;;;;17.90;65.50;97282.66;4487781;31;20439;-83
2022/09/17 08:11:14;;;;;;;9.32;3.65;;;;;;;17.88;64.67;97276.75;4487358;31;20153;-83
2022/09/17 08:13:58;;;;;;;7.82;3.62;;;;;;;18.01;64.76;97286.97;4487490;31;20436;-83
2022/09/17 08:16:25;;;;;;;9.68;3.45;;;;;;;18.36;63.12;97285.75;4487722;31;20104;-83
2022/09/17 08:18:56;;;;;;;9.25;3.33;;;;;;;17.01;68.90;97283.94;4487416;32;20103;-83
2022/09/17 08:21:23;;;;;;;8.43;3.45;;;;;;;17.32;67.84;97299.69;4487682;31;20102;-83
2022/09/17 08:23:50;;;;;;;8.95;3.60;;;;;;;17.08;68.79;97289.47;4487586;31;20506;-82
2022/09/17 08:26:20;;;;;;;8.70;3.42;;;;;;;16.62;70.37;97282.72;4487409;31;20100;-83
2022/09/17 08:28:55;;;;;;;8.55;3.50;;;;;;;17.79;66.58;97292.34;4487587;31;20092;-83
2022/09/17 08:31:24;;;;;;;8.77;3.75;;;;;;;18.09;65.01;97283.72;4487481;31;20097;-83
2022/09/17 08:33:51;;;;;;;9.90;3.70;;;;;;;17.71;66.40;97289.56;4487125;31;20137;-82
2022/09/17 08:36:20;;;;;;;6.90;3.17;;;;;;;18.14;65.24;97287.56;4487561;31;20107;-83
2022/09/17 08:38:48;;;;;;;9.48;3.45;;;;;;;17.97;66.74;97290.81;4487560;31;20443;-83
2022/09/17 08:41:23;;;;;;;6.97;3.30;;;;;;;17.30;68.99;97281.56;4487226;31;20092;-83
2022/09/17 08:44:30;;;;;;;6.30;2.92;;;;;;;17.84;67.96;97282.34;4486037;32;20079;-82
2022/09/17 08:47:00;;;;;;;8.90;3.67;;;;;;;18.08;66.48;97290.72;4475265;31;20100;-83
2022/09/17 08:49:33;;;;;;;8.90;3.17;;;;;;;18.36;65.49;97297.00;4487417;32;20092;-83
2022/09/17 08:52:05;;;;;;;10.85;3.55;;;;;;;18.19;65.39;97308.91;4487527;31;20145;-83
2022/09/17 08:54:53;;;;;;;6.70;2.87;;;;;;;18.32;64.93;97316.53;4487091;31;20340;-83
2022/09/17 08:57:23;;;;;;;6.35;2.95;;;;;;;19.41;60.68;97313.03;4486167;32;20105;-83
2022/09/17 08:59:56;;;;;;;7.37;3.15;;;;;;;18.65;62.76;97312.00;4487300;31;20127;-83
2022/09/17 09:02:37;;;;;;;8.38;3.58;;;;;;;17.74;66.29;97302.34;4485924;32;20089;-84
2022/09/17 09:05:09;;;;;;;6.57;3.15;;;;;;;17.88;66.27;97305.47;4486061;32;20080;-83
2022/09/17 09:07:42;;;;;;;7.30;3.20;;;;;;;17.02;69.40;97306.44;4473007;32;20123;-83
2022/09/17 09:10:16;;;;;;;7.37;3.42;;;;;;;17.66;67.25;97312.56;4487308;31;20104;-83
2022/09/17 09:12:43;;;;;;;7.57;3.20;;;;;;;18.10;66.45;97307.09;4486419;32;20213;-83
2022/09/17 09:15:44;;;;;;;7.75;2.80;;;;;;;17.66;67.07;97300.34;4487535;31;20087;-83
2022/09/17 09:18:26;;;;;;;7.40;3.17;;;;;;;16.56;70.69;97290.16;4455085;32;20171;-83
2022/09/17 09:20:58;;;;;;;9.48;3.62;;;;;;;16.75;71.61;97287.81;4487216;31;20092;-84
2022/09/17 09:23:57;;;;;;;7.22;3.30;;;;;;;16.71;71.12;97281.19;4486876;31;20211;-83
2022/09/17 09:26:45;;;;;;;7.85;3.37;;;;;;;16.26;72.70;97283.81;4487022;31;20186;-83
2022/09/17 09:29:30;;;;;;;7.78;3.03;;;;;;;18.27;64.84;97299.56;4485491;32;20100;-82
2022/09/17 09:32:13;;;;;;;7.18;2.70;;;;;;;17.40;68.41;97275.59;4486832;31;20515;-83
2022/09/17 09:34:43;;;;;;;7.40;2.95;;;;;;;17.01;68.85;97270.91;4485894;32;20454;-83
2022/09/17 09:37:12;;;;;;;7.10;3.05;;;;;;;16.24;74.35;97275.28;4485542;32;20085;-83
2022/09/17 09:39:41;;;;;;;8.05;3.15;;;;;;;16.68;72.50;97263.19;4486885;31;20112;-83
2022/09/17 09:42:24;;;;;;;7.65;3.40;;;;;;;17.00;70.69;97261.41;4485467;32;20092;-83
2022/09/17 09:44:51;;;;;;;8.50;3.37;;;;;;;16.35;73.62;97264.03;4486689;31;20123;-83
2022/09/17 09:47:39;;;;;;;6.95;3.22;;;;;;;17.13;70.00;97263.06;4486860;31;20076;-83
2022/09/17 09:50:28;;;;;;;7.03;3.30;;;;;;;16.88;70.66;97240.75;4485282;32;20100;-83
2022/09/17 09:53:24;;;;;;;9.23;3.33;;;;;;;17.18;70.05;97232.22;4485651;32;20076;-83
2022/09/17 09:55:54;;;;;;;9.85;3.55;;;;;;;16.49;71.87;97242.97;4486561;32;20096;-83
2022/09/17 09:58:39;;;;;;;7.72;3.17;;;;;;;16.17;73.23;97250.72;4486638;31;20137;-83
2022/09/17 10:01:15;;;;;;;7.60;3.37;;;;;;;16.31;72.66;97244.41;4487469;32;20100;-83
2022/09/17 10:03:44;;;;;;;8.23;3.30;;;;;;;16.57;71.73;97243.16;4488304;31;20113;-83
2022/09/17 10:06:15;;;;;;;6.35;3.08;;;;;;;16.58;72.23;97249.19;4488585;31;20152;-83
2022/09/17 10:09:02;;;;;;;7.53;3.28;;;;;;;16.88;70.95;97252.00;4488671;31;20085;-83
2022/09/17 10:11:33;;;;;;;8.70;3.60;;;;;;;16.35;74.77;97233.63;4488038;32;20391;-83
2022/09/17 10:14:17;;;;;;;9.10;3.78;;;;;;;15.90;76.95;97227.66;4488680;31;20149;-83
2022/09/17 10:16:44;;;;;;;9.70;3.78;;;;;;;16.10;76.72;97220.91;4488509;31;20085;-83
2022/09/17 10:19:26;;;;;;;7.20;3.30;;;;;;;17.23;72.76;97217.84;4488107;31;20084;-83
2022/09/17 10:21:53;;;;;;;9.05;3.55;;;;;;;16.73;74.25;97219.37;4488882;31;20196;-83
2022/09/17 10:24:26;;;;;;;9.70;3.08;;;;;;;16.65;72.63;97234.75;4488052;31;20413;-83
2022/09/17 10:27:04;;;;;;;7.75;3.62;;;;;;;18.06;67.01;97256.06;4488554;31;20085;-83
2022/09/17 10:29:32;;;;;;;8.50;3.90;;;;;;;17.00;69.60;97276.22;4487126;32;20080;-83
2022/09/17 10:31:59;;;;;;;10.07;4.20;;;;;;;16.47;69.57;97273.50;4487021;32;20104;-83
2022/09/17 10:34:28;;;;;;;8.38;3.60;;;;;;;17.24;68.34;97276.03;4488221;31;20114;-83
2022/09/17 10:36:56;;;;;;;7.32;3.30;;;;;;;17.06;67.87;97270.53;4487337;32;20454;-83
2022/09/17 10:39:26;;;;;;;8.68;4.00;;;;;;;17.17;68.24;97270.47;4486755;32;20072;-83
2022/09/17 10:42:16;;;;;;;8.43;3.87;;;;;;;16.99;69.88;97277.19;4488016;31;20100;-82
2022/09/17 10:45:03;;;;;;;9.23;4.00;;;;;;;17.43;68.35;97275.31;4488202;31;20466;-83
2022/09/17 10:47:35;;;;;;;8.80;3.80;;;;;;;18.32;65.06;97268.69;4487971;31;20088;-83
2022/09/17 10:50:15;;;;;;;8.05;3.80;;;;;;;18.53;65.33;97273.84;4474334;32;20511;-83
2022/09/17 10:52:47;;;;;;;8.18;3.87;;;;;;;17.87;64.02;97253.41;4488019;31;20104;-83
2022/09/17 10:55:33;;;;;;;11.18;4.25;;;;;;;18.18;63.77;97257.66;4487063;32;20104;-83
2022/09/17 10:58:06;;;;;;;9.77;4.12;;;;;;;17.96;64.18;97263.03;4487241;32;20106;-83
2022/09/17 11:00:33;;;;;;;8.82;3.75;;;;;;;17.68;64.89;97250.66;4487825;31;20431;-83
2022/09/17 11:03:15;;;;;;;8.50;3.87;;;;;;;17.41;66.80;97236.34;4488151;31;20109;-83
2022/09/17 11:05:56;;;;;;;9.50;3.80;;;;;;;17.93;64.91;97224.16;4488152;31;20159;-83
2022/09/17 11:08:41;;;;;;;9.07;4.00;;;;;;;17.82;64.64;97221.63;4486662;32;20472;-83
2022/09/17 11:11:11;;;;;;;9.60;3.80;;;;;;;17.89;64.54;97217.56;4487345;31;20084;-83
2022/09/17 11:13:53;;;;;;;8.40;3.70;;;;;;;18.35;62.86;97201.34;4486770;32;20104;-83
2022/09/17 11:16:45;;;;;;;6.55;3.33;;;;;;;18.73;60.77;97205.84;4487143;32;20127;-83
2022/09/17 11:19:21;;;;;;;9.35;3.80;;;;;;;18.97;60.46;97207.22;4488076;31;20103;-83
2022/09/17 11:22:03;;;;;;;7.75;3.70;;;;;;;18.92;59.48;97188.50;4487729;31;20085;-83
2022/09/17 11:24:57;;;;;;;7.70;3.22;;;;;;;18.91;59.90;97190.28;4486824;32;20451;-83
2022/09/17 11:27:48;;;;;;;8.90;4.03;;;;;;;18.16;60.49;97178.63;4488068;31;20092;-83
2022/09/17 11:30:17;;;;;;;7.57;3.60;;;;;;;17.03;68.34;97180.41;4487997;31;20155;-83
2022/09/17 11:32:53;;;;;;;7.30;3.35;;;;;;;18.71;61.76;97176.38;4486860;32;20072;-83
2022/09/17 11:35:24;;;;;;;7.72;3.25;;;;;;;19.27;59.06;97183.50;4487553;32;20624;-83
2022/09/17 11:38:02;;;;;;;5.97;2.70;;;;;;;19.02;57.72;97187.53;4486895;32;20109;-83
2022/09/17 11:40:41;;;;;;;6.30;2.67;;;;;;;18.53;57.72;97171.97;4487987;31;20088;-82
2022/09/17 11:43:25;;;;;;;4.75;2.58;;;;;;;17.99;59.57;97186.28;4487581;32;20099;-83
2022/09/17 11:46:12;;;;;;;5.78;2.55;;;;;;;18.35;60.19;97190.06;4491622;31;20435;-82
2022/09/17 11:49:15;;;;;;;6.68;2.95;;;;;;;17.83;62.31;97178.94;4487715;31;20160;-83
2022/09/17 11:51:57;;;;;;;5.68;2.78;;;;;;;17.81;63.36;97154.75;4434578;31;20498;-83
2022/09/17 11:54:29;;;;;;;6.50;2.90;;;;;;;16.85;66.96;97139.41;4486627;32;20076;-82
2022/09/17 11:57:10;;;;;;;5.80;2.90;;;;;;;17.69;65.77;97141.00;4487682;31;20092;-83
2022/09/17 11:59:53;;;;;;;7.85;3.10;;;;;;;18.56;61.36;97142.94;4486609;32;20092;-82
2022/09/17 12:02:37;;;;;;;6.53;2.90;;;;;;;18.05;62.74;97133.53;4486651;32;20084;-83